createdAt,value
2022-08-25T00:00:51.320Z,100989.81
2022-08-25T00:03:19.895Z,100987.28
2022-08-25T00:05:50.574Z,100982.69
2022-08-25T00:08:19.065Z,100985.31
2022-08-25T00:10:59.907Z,100986.34
2022-08-25T00:13:32.215Z,100987.19
2022-08-25T00:16:02.586Z,100981.19
2022-08-25T00:18:31.114Z,100992.44
2022-08-25T00:20:59.605Z,100990.97
2022-08-25T00:23:28.184Z,100997.88
2022-08-25T00:25:56.765Z,100997.13
2022-08-25T00:28:25.346Z,100992.94
2022-08-25T00:30:53.858Z,100992.06
2022-08-25T00:33:23.785Z,100989.44
2022-08-25T00:35:52.307Z,100988.78
2022-08-25T00:38:20.974Z,100984.38
2022-08-25T00:41:06.061Z,100989.38
2022-08-25T00:43:46.825Z,100991.34
2022-08-25T00:46:19.280Z,100988.78
2022-08-25T00:48:52.495Z,100989.75
2022-08-25T00:51:30.154Z,100997.81
2022-08-25T00:53:58.844Z,100996.78
2022-08-25T00:56:28.734Z,101000.44
2022-08-25T00:58:58.196Z,100998.75
2022-08-25T01:01:27.505Z,101000.44
2022-08-25T01:03:57.545Z,100995.38
2022-08-25T01:06:26.704Z,100995.56
2022-08-25T01:08:56.064Z,100994.09
2022-08-25T01:11:24.634Z,101001.00
2022-08-25T01:13:58.484Z,100999.34
2022-08-25T01:16:27.865Z,101002.13
2022-08-25T01:19:00.764Z,101001.47
2022-08-25T01:21:34.775Z,101004.28
2022-08-25T01:24:03.314Z,101006.06
2022-08-25T01:26:33.934Z,101010.75
2022-08-25T01:29:25.717Z,101006.78
2022-08-25T01:31:58.213Z,101007.56
2022-08-25T01:34:28.124Z,101013.75
2022-08-25T01:36:59.285Z,101013.94
2022-08-25T01:39:30.244Z,101015.63
2022-08-25T01:42:14.923Z,101015.63
2022-08-25T01:44:47.693Z,101024.53
2022-08-25T01:47:17.523Z,101024.53
2022-08-25T01:49:46.153Z,101026.31
2022-08-25T01:52:21.606Z,101026.38
2022-08-25T01:54:50.504Z,101038.66
2022-08-25T01:57:19.305Z,101032.69
2022-08-25T01:59:48.303Z,101025.38
2022-08-25T02:02:18.446Z,101039.88
2022-08-25T02:04:47.933Z,101038.19
2022-08-25T02:07:18.104Z,101036.41
2022-08-25T02:09:46.553Z,101047.84
2022-08-25T02:12:15.634Z,101039.88
2022-08-25T02:14:44.122Z,101049.72
2022-08-25T02:17:12.594Z,101050.84
2022-08-25T02:19:41.086Z,101041.38
2022-08-25T02:22:09.523Z,101049.25
2022-08-25T02:24:39.383Z,101050.25
2022-08-25T02:27:08.383Z,101041.75
2022-08-25T02:29:36.943Z,101054.84
2022-08-25T02:32:06.154Z,101048.78
2022-08-25T02:34:35.193Z,101048.00
2022-08-25T02:37:03.723Z,101049.72
2022-08-25T02:39:32.146Z,101048.00
2022-08-25T02:42:02.004Z,101056.00
2022-08-25T02:44:31.484Z,101058.50
2022-08-25T02:47:00.106Z,101053.47
2022-08-25T02:49:28.564Z,101049.13
2022-08-25T02:51:58.954Z,101045.69
2022-08-25T02:54:27.674Z,101049.13
2022-08-25T02:56:56.174Z,101051.94
2022-08-25T02:59:26.106Z,101043.06
2022-08-25T03:01:54.785Z,101055.41
2022-08-25T03:04:23.767Z,101048.41
2022-08-25T03:06:52.444Z,101048.47
2022-08-25T03:09:21.225Z,101046.16
2022-08-25T03:11:49.825Z,101041.81
2022-08-25T03:14:18.354Z,101038.34
2022-08-25T03:16:48.430Z,101048.84
2022-08-25T03:19:18.423Z,101042.00
2022-08-25T03:21:47.204Z,101050.63
2022-08-25T03:24:15.676Z,101048.94
2022-08-25T03:26:56.091Z,101050.81
2022-08-25T03:29:25.824Z,101049.88
2022-08-25T03:31:59.238Z,101053.44
2022-08-25T03:34:29.226Z,101051.75
2022-08-25T03:36:59.683Z,101041.25
2022-08-25T03:39:29.210Z,101040.59
2022-08-25T03:41:57.663Z,101035.34
2022-08-25T03:44:26.184Z,101037.13
2022-08-25T03:46:56.113Z,101034.50
2022-08-25T03:49:25.724Z,101038.81
2022-08-25T03:51:56.264Z,101038.91
2022-08-25T03:54:26.894Z,101038.06
2022-08-25T03:56:55.743Z,101035.34
2022-08-25T03:59:24.244Z,101041.63
2022-08-25T04:01:55.229Z,101041.63
2022-08-25T04:04:25.913Z,101037.41
2022-08-25T04:06:54.559Z,101039.19
2022-08-25T04:09:23.637Z,101035.63
2022-08-25T04:11:53.447Z,101040.84
2022-08-25T04:14:23.908Z,101034.78
2022-08-25T04:16:53.120Z,101035.78
2022-08-25T04:19:22.211Z,101035.03
2022-08-25T04:21:53.501Z,101043.84
2022-08-25T04:24:25.325Z,101041.22
2022-08-25T04:26:54.456Z,101041.41
2022-08-25T04:29:25.195Z,101041.31
2022-08-25T04:31:55.105Z,101041.50
2022-08-25T04:34:30.261Z,101030.13
2022-08-25T04:37:03.037Z,101025.84
2022-08-25T04:39:32.445Z,101036.34
2022-08-25T04:42:01.388Z,101026.13
2022-08-25T04:44:31.335Z,101028.63
2022-08-25T04:47:00.309Z,101027.03
2022-08-25T04:49:28.983Z,101028.81
2022-08-25T04:51:57.781Z,101028.81
2022-08-25T04:54:28.410Z,101020.22
2022-08-25T04:56:58.655Z,101022.06
2022-08-25T04:59:29.940Z,101029.19
2022-08-25T05:02:02.813Z,101031.97
2022-08-25T05:04:31.928Z,101030.88
2022-08-25T05:07:00.765Z,101025.72
2022-08-25T05:09:32.658Z,101026.66
2022-08-25T05:12:02.241Z,101025.81
2022-08-25T05:14:31.343Z,101031.13
2022-08-25T05:17:00.913Z,101031.06
2022-08-25T05:19:29.496Z,101022.31
2022-08-25T05:21:58.307Z,101022.56
2022-08-25T05:24:28.245Z,101030.53
2022-08-25T05:26:58.795Z,101022.75
2022-08-25T05:29:27.405Z,101035.84
2022-08-25T05:31:56.186Z,101024.78
2022-08-25T05:34:25.594Z,101028.16
2022-08-25T05:36:54.764Z,101028.16
2022-08-25T05:39:23.245Z,101030.03
2022-08-25T05:41:55.317Z,101034.53
2022-08-25T05:44:25.335Z,101036.97
2022-08-25T05:46:53.947Z,101030.91
2022-08-25T05:49:22.525Z,101037.22
2022-08-25T05:51:51.023Z,101032.81
2022-08-25T05:54:19.944Z,101035.25
2022-08-25T05:56:48.478Z,101040.50
2022-08-25T05:59:16.955Z,101041.56
2022-08-25T06:02:03.824Z,101039.66
2022-08-25T06:04:32.664Z,101036.13
2022-08-25T06:07:01.195Z,101050.25
2022-08-25T06:09:29.834Z,101043.41
2022-08-25T06:11:58.544Z,101046.69
2022-08-25T06:14:27.627Z,101046.63
2022-08-25T06:16:57.594Z,101051.94
2022-08-25T06:19:26.025Z,101053.88
2022-08-25T06:21:56.828Z,101050.97
2022-08-25T06:24:26.374Z,101053.59
2022-08-25T06:26:55.264Z,101057.00
2022-08-25T06:29:24.517Z,101052.75
2022-08-25T06:31:53.160Z,101059.63
2022-08-25T06:34:24.088Z,101058.78
2022-08-25T06:36:53.334Z,101059.63
2022-08-25T06:39:21.964Z,101058.59
2022-08-25T06:41:53.416Z,101061.28
2022-08-25T06:44:22.004Z,101053.38
2022-08-25T06:46:50.492Z,101066.22
2022-08-25T06:49:19.225Z,101059.03
2022-08-25T06:51:49.815Z,101059.13
2022-08-25T06:54:18.264Z,101061.75
2022-08-25T06:56:47.215Z,101061.75
2022-08-25T06:59:18.474Z,101060.72
2022-08-25T07:01:49.716Z,101062.34
2022-08-25T07:04:18.835Z,101073.31
2022-08-25T07:06:49.285Z,101075.66
2022-08-25T07:09:18.425Z,101068.38
2022-08-25T07:11:47.234Z,101069.03
2022-08-25T07:14:18.348Z,101074.94
2022-08-25T07:16:49.610Z,101079.34
2022-08-25T07:19:21.223Z,101077.56
2022-08-25T07:21:52.555Z,101076.81
2022-08-25T07:24:21.125Z,101085.44
2022-08-25T07:26:49.644Z,101079.53
2022-08-25T07:29:20.344Z,101077.53
2022-08-25T07:32:01.025Z,101083.16
2022-08-25T07:34:52.014Z,101082.22
2022-08-25T07:37:48.109Z,101079.41
2022-08-25T07:40:16.362Z,101081.25
2022-08-25T07:42:46.866Z,101074.63
2022-08-25T07:45:20.576Z,101075.47
2022-08-25T07:47:52.363Z,101089.25
2022-08-25T07:50:22.140Z,101094.91
2022-08-25T07:52:55.064Z,101098.09
2022-08-25T07:55:24.776Z,101102.88
2022-08-25T07:57:56.037Z,101096.50
2022-08-25T08:00:28.073Z,101089.88
2022-08-25T08:02:57.141Z,101089.22
2022-08-25T08:05:26.464Z,101094.38
2022-08-25T08:07:57.774Z,101095.59
2022-08-25T08:11:02.874Z,101099.81
2022-08-25T08:13:18.316Z,101098.59
2022-08-25T08:15:48.244Z,101102.25
2022-08-25T08:18:17.385Z,101101.22
2022-08-25T08:20:48.034Z,101109.94
2022-08-25T08:23:19.195Z,101103.00
2022-08-25T08:25:48.385Z,101102.72
2022-08-25T08:28:16.995Z,101102.44
2022-08-25T08:30:52.848Z,101107.00
2022-08-25T08:33:24.404Z,101106.16
2022-08-25T08:35:59.324Z,101114.03
2022-08-25T08:38:29.416Z,101114.59
2022-08-25T08:41:25.884Z,101117.13
2022-08-25T08:43:56.272Z,101119.34
2022-08-25T08:46:41.090Z,101124.63
2022-08-25T08:49:26.755Z,101124.41
2022-08-25T08:52:01.994Z,101133.91
2022-08-25T08:54:38.584Z,101120.75
2022-08-25T08:57:15.664Z,101120.38
2022-08-25T08:59:53.135Z,101116.06
2022-08-25T09:02:39.598Z,101110.50
2022-08-25T09:05:20.205Z,101118.19
2022-08-25T09:07:54.701Z,101121.66
2022-08-25T09:10:27.480Z,101110.13
2022-08-25T09:13:05.881Z,101120.47
2022-08-25T09:16:08.110Z,101126.47
2022-08-25T09:18:51.231Z,101123.00
2022-08-25T09:21:35.995Z,101131.16
2022-08-25T09:24:37.274Z,101122.53
2022-08-25T09:27:21.634Z,101121.13
2022-08-25T09:30:01.274Z,101115.56
2022-08-25T09:32:40.097Z,101126.56
2022-08-25T09:35:18.749Z,101132.56
2022-08-25T09:38:01.554Z,101122.34
2022-08-25T09:40:34.484Z,101123.00
2022-08-25T09:43:21.685Z,101130.13
2022-08-25T09:45:58.071Z,101120.56
2022-08-25T09:48:39.804Z,101120.38
2022-08-25T09:51:21.127Z,101119.63
2022-08-25T09:53:56.727Z,101118.13
2022-08-25T09:56:26.043Z,101115.88
2022-08-25T09:59:03.026Z,101115.97
2022-08-25T10:01:34.943Z,101119.78
2022-08-25T10:04:07.129Z,101114.38
2022-08-25T10:06:49.275Z,101121.47
2022-08-25T10:09:29.626Z,101116.22
2022-08-25T10:12:06.815Z,101117.00
2022-08-25T10:14:44.397Z,101117.84
2022-08-25T10:17:24.864Z,101123.38
2022-08-25T10:20:13.686Z,101130.97
2022-08-25T10:22:43.484Z,101118.41
2022-08-25T10:25:14.173Z,101112.94
2022-08-25T10:27:58.667Z,101115.84
2022-08-25T10:30:36.140Z,101107.69
2022-08-25T10:33:18.064Z,101106.09
2022-08-25T10:35:57.614Z,101111.72
2022-08-25T10:38:42.904Z,101107.81
2022-08-25T10:41:32.154Z,101106.97
2022-08-25T10:44:30.504Z,101103.59
2022-08-25T10:47:23.199Z,101103.59
2022-08-25T10:49:57.674Z,101096.84
2022-08-25T10:52:37.035Z,101084.34
2022-08-25T10:55:15.104Z,101104.25
2022-08-25T10:57:57.748Z,101097.94
2022-08-25T11:00:35.424Z,101097.84
2022-08-25T11:03:22.044Z,101089.31
2022-08-25T11:06:00.224Z,101092.38
2022-08-25T11:08:34.764Z,101093.03
2022-08-25T11:11:09.423Z,101091.44
2022-08-25T11:13:44.394Z,101088.72
2022-08-25T11:16:19.189Z,101092.25
2022-08-25T11:18:54.804Z,101087.13
2022-08-25T11:21:28.124Z,101084.50
2022-08-25T11:24:07.174Z,101089.44
2022-08-25T11:26:40.624Z,101082.50
2022-08-25T11:29:16.013Z,101083.44
2022-08-25T11:31:52.782Z,101082.50
2022-08-25T11:34:25.535Z,101081.47
2022-08-25T11:37:01.415Z,101079.53
2022-08-25T11:39:46.675Z,101073.44
2022-08-25T11:42:28.934Z,101066.00
2022-08-25T11:45:10.115Z,101071.16
2022-08-25T11:48:10.685Z,101062.63
2022-08-25T11:50:59.746Z,101054.53
2022-08-25T11:53:31.283Z,101057.69
2022-08-25T11:56:04.637Z,101048.88
2022-08-25T11:58:49.878Z,101050.34
2022-08-25T12:01:57.743Z,101047.28
2022-08-25T12:04:44.182Z,101047.19
2022-08-25T12:07:28.167Z,101056.38
2022-08-25T12:10:19.681Z,101055.19
2022-08-25T12:13:16.834Z,101053.72
2022-08-25T12:16:01.625Z,101043.63
2022-08-25T12:18:50.327Z,101044.78
2022-08-25T12:21:34.516Z,101044.34
2022-08-25T12:24:22.803Z,101039.63
2022-08-25T12:26:58.046Z,101043.19
2022-08-25T12:29:42.315Z,101036.44
2022-08-25T12:32:29.276Z,101037.53
2022-08-25T12:35:29.938Z,101025.91
2022-08-25T12:38:07.554Z,101026.66
2022-08-25T12:40:40.974Z,101018.03
2022-08-25T12:43:14.844Z,101023.41
2022-08-25T12:45:49.982Z,101022.22
2022-08-25T12:49:05.178Z,101025.50
2022-08-25T12:51:52.274Z,101014.13
2022-08-25T12:54:27.824Z,101016.88
2022-08-25T12:57:00.794Z,101016.03
2022-08-25T12:59:37.074Z,101015.09
2022-08-25T13:02:34.291Z,101020.34
2022-08-25T13:05:41.718Z,101006.22
2022-08-25T13:08:46.797Z,101016.03
2022-08-25T13:11:20.610Z,101014.13
2022-08-25T13:13:56.064Z,101012.25
2022-08-25T13:16:29.597Z,101014.78
2022-08-25T13:19:01.778Z,101013.06
2022-08-25T13:21:35.344Z,101013.94
2022-08-25T13:24:09.104Z,101011.09
2022-08-25T13:26:48.175Z,101006.69
2022-08-25T13:29:23.794Z,101013.53
2022-08-25T13:31:57.859Z,101017.00
2022-08-25T13:34:34.533Z,101019.53
2022-08-25T13:37:26.308Z,101015.94
2022-08-25T13:40:11.156Z,101009.84
2022-08-25T13:42:42.802Z,101003.75
2022-08-25T13:45:18.245Z,101000.88
2022-08-25T13:47:48.194Z,101004.34
2022-08-25T13:50:34.729Z,101006.16
2022-08-25T13:53:06.274Z,100998.97
2022-08-25T13:55:51.252Z,100994.66
2022-08-25T13:58:24.791Z,100999.84
2022-08-25T14:01:22.655Z,100990.97
2022-08-25T14:04:20.194Z,100986.56
2022-08-25T14:06:50.405Z,100997.69
2022-08-25T14:09:27.871Z,100980.00
2022-08-25T14:11:59.204Z,100980.84
2022-08-25T14:14:35.384Z,100987.78
2022-08-25T14:17:22.335Z,100972.94
2022-08-25T14:19:58.757Z,100968.44
2022-08-25T14:22:27.735Z,100976.19
2022-08-25T14:25:00.024Z,100962.19
2022-08-25T14:27:28.524Z,100960.53
2022-08-25T14:29:57.084Z,100964.00
2022-08-25T14:32:27.394Z,100965.56
2022-08-25T14:34:55.964Z,100956.81
2022-08-25T14:37:25.621Z,100958.59
2022-08-25T14:39:54.893Z,100958.72
2022-08-25T14:42:25.399Z,100962.31
2022-08-25T14:44:54.794Z,100953.56
2022-08-25T14:47:24.925Z,100959.78
2022-08-25T14:49:54.897Z,100955.25
2022-08-25T14:52:28.059Z,100950.84
2022-08-25T14:54:57.394Z,100951.53
2022-08-25T14:57:26.081Z,100950.50
2022-08-25T14:59:55.364Z,100948.81
2022-08-25T15:02:29.453Z,100955.53
2022-08-25T15:05:06.036Z,100944.06
2022-08-25T15:07:52.543Z,100945.00
2022-08-25T15:10:21.886Z,100941.53
2022-08-25T15:12:54.787Z,100942.16
2022-08-25T15:15:26.592Z,100937.00
2022-08-25T15:17:58.136Z,100935.22
2022-08-25T15:20:30.494Z,100937.84
2022-08-25T15:22:59.257Z,100936.16
2022-08-25T15:25:27.860Z,100933.53
2022-08-25T15:27:56.489Z,100934.38
2022-08-25T15:30:30.915Z,100937.09
2022-08-25T15:33:00.003Z,100933.97
2022-08-25T15:35:30.274Z,100930.38
2022-08-25T15:37:58.716Z,100932.06
2022-08-25T15:40:27.355Z,100927.53
2022-08-25T15:42:56.103Z,100923.00
2022-08-25T15:45:24.565Z,100916.56
2022-08-25T15:47:54.020Z,100918.84
2022-08-25T15:50:25.992Z,100914.44
2022-08-25T15:52:56.244Z,100908.22
2022-08-25T15:55:25.086Z,100909.25
2022-08-25T15:57:53.574Z,100906.03
2022-08-25T16:00:22.945Z,100905.28
2022-08-25T16:02:52.627Z,100905.28
2022-08-25T16:05:25.742Z,100894.75
2022-08-25T16:07:56.105Z,100902.41
2022-08-25T16:10:25.162Z,100898.22
2022-08-25T16:12:53.674Z,100891.28
2022-08-25T16:15:23.967Z,100889.47
2022-08-25T16:17:57.384Z,100898.13
2022-08-25T16:20:26.465Z,100889.25
2022-08-25T16:22:56.434Z,100881.47
2022-08-25T16:25:25.086Z,100878.00
2022-08-25T16:27:53.584Z,100879.69
2022-08-25T16:30:22.704Z,100880.88
2022-08-25T16:32:51.184Z,100888.78
2022-08-25T16:35:19.714Z,100889.59
2022-08-25T16:37:50.204Z,100889.81
2022-08-25T16:40:22.942Z,100884.66
2022-08-25T16:42:51.634Z,100886.44
2022-08-25T16:45:20.087Z,100886.56
2022-08-25T16:47:49.115Z,100873.63
2022-08-25T16:50:18.233Z,100875.44
2022-08-25T16:53:04.133Z,100872.91
2022-08-25T16:55:38.968Z,100877.31
2022-08-25T16:58:08.378Z,100877.41
2022-08-25T17:00:41.238Z,100886.06
2022-08-25T17:03:13.176Z,100886.28
2022-08-25T17:05:43.655Z,100879.34
2022-08-25T17:08:31.024Z,100880.06
2022-08-25T17:11:10.495Z,100883.34
2022-08-25T17:13:44.612Z,100878.69
2022-08-25T17:16:14.611Z,100866.34
2022-08-25T17:18:47.829Z,100865.38
2022-08-25T17:21:21.987Z,100866.00
2022-08-25T17:23:53.904Z,100866.00
2022-08-25T17:26:27.833Z,100862.44
2022-08-25T17:28:57.813Z,100869.59
2022-08-25T17:31:28.390Z,100874.13
2022-08-25T17:33:58.716Z,100877.72
2022-08-25T17:36:27.553Z,100876.06
2022-08-25T17:38:56.980Z,100877.81
2022-08-25T17:41:27.353Z,100876.28
2022-08-25T17:43:55.804Z,100871.94
2022-08-25T17:46:24.566Z,100876.50
2022-08-25T17:48:53.253Z,100866.88
2022-08-25T17:51:23.148Z,100871.22
2022-08-25T17:53:53.104Z,100866.06
2022-08-25T17:56:24.225Z,100868.69
2022-08-25T17:58:55.424Z,100870.47
2022-08-25T18:01:27.224Z,100865.34
2022-08-25T18:03:57.564Z,100875.22
2022-08-25T18:06:27.265Z,100872.13
2022-08-25T18:08:59.782Z,100873.50
2022-08-25T18:11:30.205Z,100872.75
2022-08-25T18:14:00.374Z,100876.34
2022-08-25T18:16:29.604Z,100876.44
2022-08-25T18:18:58.084Z,100880.63
2022-08-25T18:21:30.234Z,100880.44
2022-08-25T18:23:59.506Z,100874.75
2022-08-25T18:26:28.283Z,100870.94
2022-08-25T18:28:56.741Z,100887.47
2022-08-25T18:31:27.014Z,100874.31
2022-08-25T18:33:55.584Z,100891.78
2022-08-25T18:36:24.324Z,100883.03
2022-08-25T18:39:11.294Z,100885.53
2022-08-25T18:41:45.070Z,100896.94
2022-08-25T18:44:15.716Z,100898.84
2022-08-25T18:46:46.027Z,100890.09
2022-08-25T18:49:15.996Z,100886.50
2022-08-25T18:51:45.064Z,100887.34
2022-08-25T18:54:23.594Z,100885.53
2022-08-25T18:56:53.961Z,100885.66
2022-08-25T18:59:23.551Z,100886.63
2022-08-25T19:01:55.134Z,100883.13
2022-08-25T19:04:28.565Z,100879.66
2022-08-25T19:07:00.773Z,100893.66
2022-08-25T19:09:29.584Z,100890.19
2022-08-25T19:11:59.203Z,100893.66
2022-08-25T19:14:27.883Z,100890.31
2022-08-25T19:16:59.506Z,100878.09
2022-08-25T19:19:29.545Z,100888.63
2022-08-25T19:21:58.304Z,100887.06
2022-08-25T19:24:28.455Z,100889.56
2022-08-25T19:26:57.304Z,100894.09
2022-08-25T19:29:26.703Z,100892.34
2022-08-25T19:32:01.955Z,100894.22
2022-08-25T19:34:35.106Z,100889.09
2022-08-25T19:37:05.784Z,100887.38
2022-08-25T19:39:35.844Z,100883.19
2022-08-25T19:42:08.943Z,100883.19
2022-08-25T19:44:57.444Z,100893.78
2022-08-25T19:47:28.223Z,100895.69
2022-08-25T19:49:56.678Z,100896.66
2022-08-25T19:52:26.635Z,100893.28
2022-08-25T19:54:55.385Z,100892.44
2022-08-25T19:57:28.422Z,100895.19
2022-08-25T20:00:15.774Z,100897.91
2022-08-25T20:02:46.037Z,100893.72
2022-08-25T20:05:23.759Z,100898.25
2022-08-25T20:07:53.825Z,100891.28
2022-08-25T20:10:23.857Z,100896.69
2022-08-25T20:12:52.385Z,100902.03
2022-08-25T20:15:21.444Z,100904.03
2022-08-25T20:17:56.341Z,100900.47
2022-08-25T20:20:25.573Z,100899.63
2022-08-25T20:23:26.014Z,100906.69
2022-08-25T20:25:55.404Z,100899.84
2022-08-25T20:28:25.663Z,100896.38
2022-08-25T20:30:56.721Z,100911.31
2022-08-25T20:33:26.724Z,100902.59
2022-08-25T20:35:55.897Z,100900.03
2022-08-25T20:38:24.434Z,100907.94
2022-08-25T20:40:52.954Z,100899.41
2022-08-25T20:43:21.464Z,100909.13
2022-08-25T20:45:52.819Z,100907.44
2022-08-25T20:48:21.454Z,100905.78
2022-08-25T20:50:54.471Z,100904.06
2022-08-25T20:53:27.294Z,100910.28
2022-08-25T20:55:55.726Z,100917.34
2022-08-25T20:58:24.217Z,100916.59
2022-08-25T21:00:55.465Z,100920.06
2022-08-25T21:03:24.267Z,100915.75
2022-08-25T21:05:54.374Z,100915.13
2022-08-25T21:08:23.803Z,100916.06
2022-08-25T21:10:53.944Z,100919.66
2022-08-25T21:13:22.846Z,100914.50
2022-08-25T21:15:51.515Z,100913.75
2022-08-25T21:18:19.964Z,100922.59
2022-08-25T21:20:48.496Z,100910.38
2022-08-25T21:23:18.854Z,100907.97
2022-08-25T21:25:47.945Z,100910.59
2022-08-25T21:28:16.445Z,100905.47
2022-08-25T21:30:47.254Z,100904.63
2022-08-25T21:33:16.204Z,100896.72
2022-08-25T21:35:45.294Z,100898.53
2022-08-25T21:38:15.464Z,100903.78
2022-08-25T21:40:45.814Z,100898.63
2022-08-25T21:43:18.519Z,100904.84
2022-08-25T21:45:47.545Z,100901.38
2022-08-25T21:48:18.634Z,100898.81
2022-08-25T21:50:47.764Z,100893.56
2022-08-25T21:53:16.344Z,100885.81
2022-08-25T21:55:46.294Z,100884.94
2022-08-25T21:58:14.815Z,100891.16
2022-08-25T22:00:44.844Z,100878.97
2022-08-25T22:03:13.267Z,100886.84
2022-08-25T22:05:41.955Z,100881.59
2022-08-25T22:08:14.174Z,100886.00
2022-08-25T22:10:46.234Z,100891.28
2022-08-25T22:13:14.794Z,100893.97
2022-08-25T22:15:44.365Z,100891.34
2022-08-25T22:18:12.927Z,100886.94
2022-08-25T22:20:41.724Z,100878.34
2022-08-25T22:23:10.194Z,100868.66
2022-08-25T22:25:50.303Z,100874.00
2022-08-25T22:28:21.704Z,100865.19
2022-08-25T22:30:50.488Z,100873.06
2022-08-25T22:33:19.624Z,100873.91
2022-08-25T22:35:49.847Z,100870.53
2022-08-25T22:38:21.654Z,100881.88
2022-08-25T22:40:52.889Z,100883.81
2022-08-25T22:43:21.854Z,100883.88
2022-08-25T22:45:50.375Z,100883.88
2022-08-25T22:48:21.874Z,100877.03
2022-08-25T22:50:50.324Z,100874.53
2022-08-25T22:53:18.744Z,100870.25
2022-08-25T22:55:47.205Z,100874.63
2022-08-25T22:58:22.094Z,100877.25
2022-08-25T23:00:50.556Z,100872.13
2022-08-25T23:03:20.242Z,100874.00
2022-08-25T23:05:49.044Z,100874.00
2022-08-25T23:08:17.774Z,100877.59
2022-08-25T23:11:06.575Z,100877.59
2022-08-25T23:13:38.443Z,100874.13
2022-08-25T23:16:11.599Z,100869.78
2022-08-25T23:18:43.804Z,100876.84
2022-08-25T23:21:37.850Z,100867.28
2022-08-25T23:24:10.657Z,100876.97
2022-08-25T23:26:41.987Z,100881.38
2022-08-25T23:29:17.704Z,100877.88
2022-08-25T23:31:48.341Z,100874.38
2022-08-25T23:34:17.404Z,100876.13
2022-08-25T23:36:46.317Z,100876.19
2022-08-25T23:39:14.834Z,100873.56
2022-08-25T23:41:43.744Z,100876.38
2022-08-25T23:44:17.107Z,100882.59
2022-08-25T23:46:47.211Z,100874.72
2022-08-25T23:49:18.261Z,100880.72
2022-08-25T23:51:48.974Z,100878.94
2022-08-25T23:54:19.054Z,100871.97
2022-08-25T23:56:51.847Z,100872.09
2022-08-25T23:59:24.650Z,100873.75
